Tulum, ROO, Mexico
Current Conditions -  °F | °C
As of 11:44 PM on Saturday 25 Oct 2014 (Local Time) from MMCZ Reporting Station
Few Clouds Few Clouds  
Wind Chill: 72°   Ceiling: Unl
Heat Index: 72°   Visibility: 7mi
Dew Point: 68°   Wind: 9mph
Humidity: 88%   Direction: 340°NNW
Pressure: 29.97"   Gusts: NA
Location:  20.22°N, 87.47°W
Report Text: MMCZ 260444Z 34008KT 7SM FEW015 22/20 A2997 RMK 8/500 RTS
Loading
Personal Weather Stations






























Interactive Weather Map
Tropical Storm Tracking
New forecast layout! Learn more

10-Day Weather Forecast

Advertisements
Track Severe Weather on mobile